Time;durP1;ratioP1;P1;durP2;ratioP2;P2;SDS_P1;SDS_P2;PMS_P1;PMS_P2;Temp;Humidity;BMP_temperature;BMP_pressure;BME280_temperature;BME280_humidity;BME280_pressure;Samples;Min_cycle;Max_cycle;Signal;HPM_P1;HPM_P2
2022/07/03 00:00:22;;;;;;;0.90;0.90;;;;;;;;;;1862568;77;26234;-43
2022/07/03 00:02:50;;;;;;;1.00;1.00;;;;;;;;;;1858415;77;26257;-43
2022/07/03 00:05:17;;;;;;;1.07;1.07;;;;;;;;;;1862678;77;26748;-47
2022/07/03 00:07:44;;;;;;;0.90;0.90;;;;;;;;;;1861295;76;26304;-53
2022/07/03 00:10:12;;;;;;;1.10;1.10;;;;;;;;;;1862179;77;26252;-47
2022/07/03 00:12:39;;;;;;;1.00;1.00;;;;;;;;;;1861952;77;26549;-41
2022/07/03 00:15:07;;;;;;;1.00;1.00;;;;;;;;;;1862558;76;26241;-49
2022/07/03 00:17:34;;;;;;;1.57;1.10;;;;;;;;;;1858005;76;26335;-44
2022/07/03 00:20:02;;;;;;;1.00;1.00;;;;;;;;;;1856155;75;26234;-44
2022/07/03 00:22:30;;;;;;;1.95;0.90;;;;;;;;;;1859166;75;26260;-53
2022/07/03 00:25:05;;;;;;;0.93;0.93;;;;;;;;;;1859747;77;26248;-42
2022/07/03 00:27:34;;;;;;;1.00;1.00;;;;;;;;;;1859321;77;26677;-47
2022/07/03 00:30:03;;;;;;;0.95;0.95;;;;;;;;;;1861670;75;26269;-43
2022/07/03 00:32:30;;;;;;;1.10;1.10;;;;;;;;;;1858275;77;26335;-52
2022/07/03 00:34:58;;;;;;;1.20;1.10;;;;;;;;;;1862630;77;26311;-45
2022/07/03 00:37:26;;;;;;;1.10;1.10;;;;;;;;;;1862552;77;26288;-49
2022/07/03 00:39:53;;;;;;;1.00;1.00;;;;;;;;;;1861398;75;26295;-51
2022/07/03 00:42:21;;;;;;;1.00;1.00;;;;;;;;;;1855027;77;26310;-48
2022/07/03 00:44:50;;;;;;;0.88;0.88;;;;;;;;;;1846076;77;27470;-51
2022/07/03 00:47:18;;;;;;;1.10;1.00;;;;;;;;;;1846649;76;26709;-42
2022/07/03 00:49:47;;;;;;;0.80;0.80;;;;;;;;;;1843690;76;27731;-43
2022/07/03 00:52:15;;;;;;;0.95;0.95;;;;;;;;;;1839914;76;26650;-43
2022/07/03 00:54:43;;;;;;;1.00;1.00;;;;;;;;;;1845812;77;27371;-42
2022/07/03 00:57:15;;;;;;;0.90;0.90;;;;;;;;;;1842717;77;26259;-46
2022/07/03 00:59:43;;;;;;;1.02;0.90;;;;;;;;;;1844994;76;26716;-42
2022/07/03 01:02:12;;;;;;;0.88;0.88;;;;;;;;;;1846240;76;26265;-42
2022/07/03 01:04:57;;;;;;;1.00;1.00;;;;;;;;;;1846171;77;26347;-43
2022/07/03 01:07:43;;;;;;;1.30;0.90;;;;;;;;;;1846227;77;26379;-44
2022/07/03 01:10:12;;;;;;;0.93;0.93;;;;;;;;;;1844183;77;26323;-51
2022/07/03 01:12:40;;;;;;;0.82;0.82;;;;;;;;;;1846753;77;26333;-50
2022/07/03 01:15:12;;;;;;;0.90;0.90;;;;;;;;;;1846243;76;26321;-50
2022/07/03 01:17:39;;;;;;;0.80;0.80;;;;;;;;;;1846272;77;26289;-46
2022/07/03 01:20:07;;;;;;;0.80;0.80;;;;;;;;;;1851735;76;26287;-42
2022/07/03 01:22:36;;;;;;;0.90;0.90;;;;;;;;;;1836510;77;26238;-45
2022/07/03 01:25:14;;;;;;;0.90;0.90;;;;;;;;;;1848502;76;26278;-42
2022/07/03 01:27:55;;;;;;;0.80;0.80;;;;;;;;;;1846864;77;27755;-46
2022/07/03 01:30:23;;;;;;;0.80;0.80;;;;;;;;;;1842215;76;26301;-50
2022/07/03 01:33:01;;;;;;;0.85;0.85;;;;;;;;;;1844307;77;26254;-43
2022/07/03 01:35:29;;;;;;;1.02;0.90;;;;;;;;;;1812126;77;26364;-45
2022/07/03 01:37:57;;;;;;;0.85;0.80;;;;;;;;;;1842918;76;26273;-51
2022/07/03 01:40:26;;;;;;;0.80;0.80;;;;;;;;;;1844096;77;26370;-46
2022/07/03 01:42:54;;;;;;;0.70;0.70;;;;;;;;;;1855494;77;26289;-47
2022/07/03 01:45:23;;;;;;;0.70;0.70;;;;;;;;;;1861203;76;26926;-45
2022/07/03 01:47:51;;;;;;;0.90;0.90;;;;;;;;;;1862978;77;26333;-45
2022/07/03 01:50:20;;;;;;;0.80;0.80;;;;;;;;;;1863519;75;26377;-44
2022/07/03 01:52:49;;;;;;;0.90;0.90;;;;;;;;;;1863343;76;26326;-50
2022/07/03 01:55:16;;;;;;;0.80;0.80;;;;;;;;;;1862469;76;26265;-44
2022/07/03 01:57:45;;;;;;;0.82;0.82;;;;;;;;;;1863439;77;26260;-47
2022/07/03 02:00:13;;;;;;;0.72;0.72;;;;;;;;;;1861859;77;26197;-42
2022/07/03 02:02:42;;;;;;;0.88;0.88;;;;;;;;;;1870466;76;26753;-51
2022/07/03 02:05:11;;;;;;;1.05;0.80;;;;;;;;;;1867586;75;26268;-42
2022/07/03 02:07:52;;;;;;;1.60;0.88;;;;;;;;;;1863408;76;26338;-52
2022/07/03 02:10:21;;;;;;;0.80;0.80;;;;;;;;;;1861412;76;26708;-47
2022/07/03 02:12:49;;;;;;;1.77;0.90;;;;;;;;;;1863864;76;26252;-42
2022/07/03 02:15:21;;;;;;;1.77;0.80;;;;;;;;;;1859737;75;26350;-55
2022/07/03 02:17:48;;;;;;;0.72;0.72;;;;;;;;;;1863078;76;26370;-43
2022/07/03 02:20:16;;;;;;;0.90;0.90;;;;;;;;;;1863765;77;26978;-42
2022/07/03 02:22:45;;;;;;;1.02;1.00;;;;;;;;;;1862373;75;26250;-46
2022/07/03 02:25:32;;;;;;;0.82;0.82;;;;;;;;;;1863040;75;26249;-59
2022/07/03 02:28:02;;;;;;;0.80;0.80;;;;;;;;;;1850224;76;26327;-46
2022/07/03 02:30:29;;;;;;;1.07;0.90;;;;;;;;;;1863058;76;26723;-45
2022/07/03 02:32:58;;;;;;;0.95;0.90;;;;;;;;;;1863312;76;26264;-43
2022/07/03 02:35:27;;;;;;;0.78;0.78;;;;;;;;;;1859449;75;26242;-45
2022/07/03 02:38:13;;;;;;;0.70;0.70;;;;;;;;;;1865050;75;26279;-44
2022/07/03 02:40:41;;;;;;;0.98;0.98;;;;;;;;;;1858280;75;26281;-44
2022/07/03 02:43:13;;;;;;;0.80;0.80;;;;;;;;;;1856800;76;26281;-43
2022/07/03 02:45:45;;;;;;;0.80;0.80;;;;;;;;;;1851606;76;26601;-47
2022/07/03 02:48:19;;;;;;;0.70;0.70;;;;;;;;;;1771196;76;26827;-43
2022/07/03 02:50:47;;;;;;;0.82;0.82;;;;;;;;;;1848579;76;26257;-47
2022/07/03 02:53:16;;;;;;;0.90;0.90;;;;;;;;;;1845265;76;26780;-51
2022/07/03 02:55:45;;;;;;;0.80;0.80;;;;;;;;;;1822611;76;26290;-48
2022/07/03 02:58:14;;;;;;;0.80;0.80;;;;;;;;;;1846878;77;26355;-43
2022/07/03 03:00:42;;;;;;;0.90;0.90;;;;;;;;;;1846894;76;26288;-42
2022/07/03 03:03:10;;;;;;;0.82;0.82;;;;;;;;;;1835645;76;26266;-44
2022/07/03 03:05:44;;;;;;;1.00;1.00;;;;;;;;;;1826566;76;26356;-48
2022/07/03 03:08:13;;;;;;;0.85;0.80;;;;;;;;;;1843671;76;26343;-46
2022/07/03 03:10:41;;;;;;;0.70;0.70;;;;;;;;;;1847997;77;26254;-42
2022/07/03 03:13:10;;;;;;;0.90;0.90;;;;;;;;;;1847709;77;26325;-50
2022/07/03 03:15:38;;;;;;;1.00;1.00;;;;;;;;;;1834873;76;26567;-48
2022/07/03 03:18:07;;;;;;;0.78;0.78;;;;;;;;;;1844146;77;26313;-42
2022/07/03 03:20:35;;;;;;;0.80;0.80;;;;;;;;;;1847001;77;26764;-53
2022/07/03 03:23:04;;;;;;;0.82;0.82;;;;;;;;;;1848140;77;26667;-46
2022/07/03 03:25:32;;;;;;;0.70;0.70;;;;;;;;;;1856350;76;26824;-46
2022/07/03 03:28:00;;;;;;;0.72;0.72;;;;;;;;;;1850558;76;26245;-45
2022/07/03 03:30:28;;;;;;;0.90;0.90;;;;;;;;;;1848961;77;26245;-48
2022/07/03 03:32:55;;;;;;;0.70;0.70;;;;;;;;;;1847803;77;26248;-48
2022/07/03 03:35:22;;;;;;;3.02;0.93;;;;;;;;;;1850731;76;26269;-46
2022/07/03 03:37:50;;;;;;;0.70;0.70;;;;;;;;;;1847083;77;26264;-44
2022/07/03 03:40:17;;;;;;;0.78;0.78;;;;;;;;;;1847551;77;26779;-42
2022/07/03 03:42:45;;;;;;;0.85;0.85;;;;;;;;;;1848087;76;26235;-45
2022/07/03 03:45:12;;;;;;;0.90;0.90;;;;;;;;;;1823490;76;26258;-45
2022/07/03 03:47:39;;;;;;;0.80;0.80;;;;;;;;;;1851652;76;26811;-46
2022/07/03 03:50:07;;;;;;;0.72;0.72;;;;;;;;;;1846989;77;26278;-41
2022/07/03 03:52:34;;;;;;;0.75;0.75;;;;;;;;;;1847875;76;26247;-54
2022/07/03 03:55:02;;;;;;;0.90;0.90;;;;;;;;;;1850976;76;26261;-42
2022/07/03 03:57:29;;;;;;;0.82;0.82;;;;;;;;;;1851706;76;27823;-49
2022/07/03 03:59:57;;;;;;;0.90;0.90;;;;;;;;;;1846065;76;26273;-50
2022/07/03 04:02:24;;;;;;;0.80;0.80;;;;;;;;;;1848076;76;26654;-51
2022/07/03 04:04:51;;;;;;;0.70;0.70;;;;;;;;;;1845295;76;26646;-42
2022/07/03 04:07:19;;;;;;;1.20;0.90;;;;;;;;;;1851426;76;26266;-42
2022/07/03 04:09:46;;;;;;;1.87;1.00;;;;;;;;;;1839495;76;26285;-47
2022/07/03 04:12:13;;;;;;;0.90;0.90;;;;;;;;;;1858699;76;26246;-42
2022/07/03 04:14:40;;;;;;;0.80;0.80;;;;;;;;;;1842419;76;26241;-58
2022/07/03 04:17:08;;;;;;;1.57;0.80;;;;;;;;;;1851624;76;26316;-42
2022/07/03 04:19:35;;;;;;;0.90;0.90;;;;;;;;;;1848077;77;26701;-44
2022/07/03 04:22:08;;;;;;;0.65;0.65;;;;;;;;;;1848616;76;26226;-44
2022/07/03 04:24:32;;;;;;;0.80;0.80;;;;;;;;;;1848420;77;26309;-47
2022/07/03 04:26:59;;;;;;;0.88;0.88;;;;;;;;;;1861529;76;26340;-52
2022/07/03 04:29:26;;;;;;;0.70;0.70;;;;;;;;;;1843274;77;26264;-45
2022/07/03 04:31:53;;;;;;;0.78;0.78;;;;;;;;;;1845953;77;26331;-47
2022/07/03 04:34:21;;;;;;;0.80;0.80;;;;;;;;;;1844067;76;26360;-57
2022/07/03 04:36:49;;;;;;;0.80;0.80;;;;;;;;;;1842702;76;26709;-44
2022/07/03 04:39:16;;;;;;;0.82;0.82;;;;;;;;;;1847184;77;26274;-46
2022/07/03 04:41:43;;;;;;;0.80;0.80;;;;;;;;;;1847773;77;26836;-46
2022/07/03 04:44:11;;;;;;;0.80;0.80;;;;;;;;;;1849934;77;26745;-41
2022/07/03 04:46:38;;;;;;;0.80;0.80;;;;;;;;;;1858440;76;27902;-48
2022/07/03 04:49:05;;;;;;;0.93;0.80;;;;;;;;;;1856724;76;26273;-46
2022/07/03 04:51:32;;;;;;;0.95;0.80;;;;;;;;;;1856209;77;26187;-47
2022/07/03 04:54:00;;;;;;;0.88;0.88;;;;;;;;;;1856320;77;26280;-42
2022/07/03 04:56:27;;;;;;;0.90;0.90;;;;;;;;;;1849718;76;26190;-42
2022/07/03 04:58:54;;;;;;;0.90;0.90;;;;;;;;;;1862507;76;26265;-42
2022/07/03 05:01:21;;;;;;;0.80;0.80;;;;;;;;;;1857932;76;26328;-59
2022/07/03 05:03:49;;;;;;;1.00;0.90;;;;;;;;;;1856568;77;26241;-48
2022/07/03 05:06:16;;;;;;;1.50;0.90;;;;;;;;;;1854944;76;26261;-42
2022/07/03 05:08:43;;;;;;;0.95;0.95;;;;;;;;;;1851110;76;26309;-47
2022/07/03 05:11:10;;;;;;;0.93;0.90;;;;;;;;;;1856152;77;26280;-55
2022/07/03 05:13:38;;;;;;;3.83;0.80;;;;;;;;;;1856400;77;26261;-46
2022/07/03 05:16:05;;;;;;;4.67;0.90;;;;;;;;;;1855825;76;26246;-48
2022/07/03 05:18:34;;;;;;;3.35;1.00;;;;;;;;;;1858486;76;26245;-48
2022/07/03 05:21:02;;;;;;;3.30;0.80;;;;;;;;;;1856472;76;26363;-49
2022/07/03 05:23:29;;;;;;;1.00;0.90;;;;;;;;;;1856862;77;26687;-48
2022/07/03 05:25:58;;;;;;;1.05;0.80;;;;;;;;;;1857960;76;26277;-46
2022/07/03 05:28:25;;;;;;;2.17;1.00;;;;;;;;;;1856896;77;26253;-47
2022/07/03 05:30:53;;;;;;;1.35;0.90;;;;;;;;;;1856403;76;26871;-47
2022/07/03 05:33:20;;;;;;;2.70;0.80;;;;;;;;;;1854827;77;26256;-48
2022/07/03 05:35:47;;;;;;;0.88;0.88;;;;;;;;;;1857475;76;26296;-51
2022/07/03 05:39:31;;;;;;;0.75;0.75;;;;;;;;;;1858268;76;26294;-49
2022/07/03 05:40:43;;;;;;;0.88;0.82;;;;;;;;;;1817345;77;26344;-50
2022/07/03 05:43:11;;;;;;;1.30;0.80;;;;;;;;;;1805031;79;26279;-48
2022/07/03 05:45:38;;;;;;;1.95;0.85;;;;;;;;;;1800260;79;26291;-45
2022/07/03 05:48:06;;;;;;;1.85;0.80;;;;;;;;;;1848507;76;26230;-45
2022/07/03 05:50:33;;;;;;;2.55;1.07;;;;;;;;;;1847149;77;26266;-47
2022/07/03 05:53:00;;;;;;;1.00;0.90;;;;;;;;;;1848751;76;26662;-49
2022/07/03 05:55:27;;;;;;;0.90;0.90;;;;;;;;;;1846939;76;26768;-51
2022/07/03 05:57:55;;;;;;;1.80;0.70;;;;;;;;;;1847356;77;26791;-49
2022/07/03 06:00:22;;;;;;;2.58;0.90;;;;;;;;;;1846924;77;26867;-47
2022/07/03 06:02:50;;;;;;;4.58;1.00;;;;;;;;;;1846696;77;26316;-48
2022/07/03 06:05:17;;;;;;;1.60;1.00;;;;;;;;;;1847061;76;26333;-49
2022/07/03 06:07:45;;;;;;;11.90;0.93;;;;;;;;;;1845146;76;26253;-46
2022/07/03 06:10:12;;;;;;;2.05;0.88;;;;;;;;;;1841384;76;26315;-46
2022/07/03 06:12:39;;;;;;;5.33;0.85;;;;;;;;;;1844308;77;26591;-45
2022/07/03 06:15:06;;;;;;;6.00;1.22;;;;;;;;;;1842380;77;26253;-46
2022/07/03 06:17:37;;;;;;;9.13;1.20;;;;;;;;;;1844361;76;26354;-46
2022/07/03 06:20:05;;;;;;;11.83;1.32;;;;;;;;;;1846964;77;26225;-44
2022/07/03 06:22:33;;;;;;;3.52;1.00;;;;;;;;;;1846851;77;26638;-44
2022/07/03 06:25:00;;;;;;;5.95;1.00;;;;;;;;;;1846588;76;26301;-50
2022/07/03 06:27:28;;;;;;;3.87;1.10;;;;;;;;;;1845800;76;26257;-44
2022/07/03 06:29:55;;;;;;;4.85;1.47;;;;;;;;;;1838512;76;26297;-44
2022/07/03 06:32:23;;;;;;;3.37;1.10;;;;;;;;;;1843437;76;26246;-47
2022/07/03 06:34:50;;;;;;;4.70;1.10;;;;;;;;;;1842807;76;26269;-49
2022/07/03 06:37:17;;;;;;;4.33;1.10;;;;;;;;;;1847723;76;26731;-46
2022/07/03 06:39:45;;;;;;;1.85;1.07;;;;;;;;;;1845681;76;26266;-46
2022/07/03 06:42:12;;;;;;;1.12;0.98;;;;;;;;;;1843446;77;26339;-46
2022/07/03 06:44:40;;;;;;;1.55;1.00;;;;;;;;;;1844717;77;26357;-47
2022/07/03 06:47:08;;;;;;;1.30;1.10;;;;;;;;;;1840151;76;26307;-50
2022/07/03 06:49:35;;;;;;;4.28;1.00;;;;;;;;;;1842092;77;26257;-47
2022/07/03 06:52:02;;;;;;;3.05;1.20;;;;;;;;;;1844621;77;26328;-46
2022/07/03 06:54:30;;;;;;;3.08;1.30;;;;;;;;;;1845372;76;26277;-44
2022/07/03 06:56:57;;;;;;;3.25;1.17;;;;;;;;;;1846670;76;26301;-45
2022/07/03 06:59:24;;;;;;;1.57;1.20;;;;;;;;;;1841563;76;26302;-45
2022/07/03 07:01:52;;;;;;;1.87;1.00;;;;;;;;;;1845903;76;26256;-43
2022/07/03 07:04:19;;;;;;;1.40;1.10;;;;;;;;;;1844918;76;26764;-46
2022/07/03 07:06:46;;;;;;;3.42;1.00;;;;;;;;;;1848271;76;26788;-43
2022/07/03 07:09:14;;;;;;;3.15;1.00;;;;;;;;;;1849338;75;26836;-46
2022/07/03 07:11:41;;;;;;;2.10;0.90;;;;;;;;;;1847727;76;26265;-48
2022/07/03 07:14:08;;;;;;;2.35;1.00;;;;;;;;;;1858688;76;26322;-45
2022/07/03 07:16:35;;;;;;;2.12;1.40;;;;;;;;;;1842213;76;26210;-46
2022/07/03 07:19:03;;;;;;;1.27;0.90;;;;;;;;;;1837287;76;26274;-44
2022/07/03 07:21:30;;;;;;;3.72;1.30;;;;;;;;;;1850799;76;26264;-48
2022/07/03 07:23:57;;;;;;;2.60;1.30;;;;;;;;;;1847825;76;26369;-52
2022/07/03 07:26:25;;;;;;;4.10;0.98;;;;;;;;;;1860466;76;26390;-46
2022/07/03 07:28:53;;;;;;;2.30;1.00;;;;;;;;;;1842848;76;27297;-48
2022/07/03 07:31:20;;;;;;;2.77;1.00;;;;;;;;;;1854750;76;26564;-46
2022/07/03 07:33:47;;;;;;;1.82;1.10;;;;;;;;;;1846428;76;26285;-45
2022/07/03 07:36:15;;;;;;;1.75;0.90;;;;;;;;;;1842663;76;26297;-46
2022/07/03 07:38:42;;;;;;;4.53;1.00;;;;;;;;;;1847916;76;26331;-44
2022/07/03 07:41:10;;;;;;;1.05;0.90;;;;;;;;;;1843031;77;26272;-44
2022/07/03 07:43:37;;;;;;;1.55;1.17;;;;;;;;;;1838957;77;26567;-49
2022/07/03 07:46:04;;;;;;;2.33;1.10;;;;;;;;;;1842218;76;26320;-46
2022/07/03 07:48:33;;;;;;;4.20;1.10;;;;;;;;;;1841882;76;26549;-48
2022/07/03 07:51:00;;;;;;;3.15;1.35;;;;;;;;;;1847169;76;26265;-45
2022/07/03 07:53:28;;;;;;;2.20;0.93;;;;;;;;;;1844772;76;26383;-46
2022/07/03 07:55:55;;;;;;;1.12;0.98;;;;;;;;;;1845715;77;26250;-44
2022/07/03 07:58:22;;;;;;;1.22;1.10;;;;;;;;;;1840984;76;26211;-46
2022/07/03 08:06:21;;;;;;;1.87;0.90;;;;;;;;;;1840539;76;26332;-45
2022/07/03 08:08:48;;;;;;;1.65;1.10;;;;;;;;;;1835030;76;27499;-43
2022/07/03 08:11:15;;;;;;;0.93;0.90;;;;;;;;;;1838731;76;26417;-42
2022/07/03 08:13:45;;;;;;;1.80;0.90;;;;;;;;;;1843856;76;26271;-45
2022/07/03 08:16:12;;;;;;;1.20;1.10;;;;;;;;;;1841776;76;26218;-46
2022/07/03 08:18:40;;;;;;;2.62;0.90;;;;;;;;;;1848353;76;26362;-44
2022/07/03 08:21:07;;;;;;;2.05;0.82;;;;;;;;;;1849803;77;26248;-45
2022/07/03 08:23:35;;;;;;;0.95;0.93;;;;;;;;;;1832472;76;26335;-44
2022/07/03 08:26:02;;;;;;;1.60;0.90;;;;;;;;;;1841209;76;26298;-45
2022/07/03 08:28:30;;;;;;;1.32;1.10;;;;;;;;;;1839355;76;26356;-45
2022/07/03 08:30:57;;;;;;;0.80;0.72;;;;;;;;;;1846071;76;26866;-42
2022/07/03 08:33:24;;;;;;;0.90;0.90;;;;;;;;;;1840588;76;26714;-43
2022/07/03 08:35:51;;;;;;;1.00;1.00;;;;;;;;;;1846702;76;26675;-47
2022/07/03 08:38:19;;;;;;;2.27;1.12;;;;;;;;;;1856382;76;27457;-44
2022/07/03 08:40:47;;;;;;;3.30;1.10;;;;;;;;;;1850352;76;26308;-43
2022/07/03 08:43:15;;;;;;;1.42;1.15;;;;;;;;;;1845085;77;26850;-49
2022/07/03 08:45:43;;;;;;;1.07;1.00;;;;;;;;;;1857113;76;26288;-47
2022/07/03 08:48:11;;;;;;;1.22;1.00;;;;;;;;;;1842703;76;26751;-43
2022/07/03 08:50:38;;;;;;;4.10;1.10;;;;;;;;;;1851184;76;26297;-42
2022/07/03 08:53:06;;;;;;;3.47;1.12;;;;;;;;;;1856593;76;26632;-46
2022/07/03 08:55:33;;;;;;;1.55;1.02;;;;;;;;;;1839718;76;26824;-46
2022/07/03 08:58:02;;;;;;;1.90;1.00;;;;;;;;;;1851618;76;26298;-44
2022/07/03 09:00:30;;;;;;;1.30;1.22;;;;;;;;;;1851472;76;26709;-45
2022/07/03 09:02:57;;;;;;;2.27;1.20;;;;;;;;;;1852237;76;26267;-44
2022/07/03 09:05:24;;;;;;;1.15;1.05;;;;;;;;;;1856999;76;26845;-45
2022/07/03 09:07:52;;;;;;;1.22;1.10;;;;;;;;;;1852063;76;26311;-43
2022/07/03 09:10:19;;;;;;;1.70;1.10;;;;;;;;;;1856154;76;26241;-40
2022/07/03 09:12:48;;;;;;;0.85;0.80;;;;;;;;;;1858719;76;26275;-41
2022/07/03 09:15:15;;;;;;;0.82;0.75;;;;;;;;;;1857083;76;26724;-43
2022/07/03 09:17:58;;;;;;;0.90;0.90;;;;;;;;;;1853537;76;26282;-46
2022/07/03 09:20:27;;;;;;;1.15;1.05;;;;;;;;;;1843000;76;26720;-44
2022/07/03 09:22:57;;;;;;;1.07;1.00;;;;;;;;;;1856238;76;26277;-42
2022/07/03 09:25:24;;;;;;;1.22;0.90;;;;;;;;;;1857249;76;26265;-47
2022/07/03 09:27:53;;;;;;;1.00;1.00;;;;;;;;;;1857165;76;26369;-42
2022/07/03 09:30:23;;;;;;;0.90;0.90;;;;;;;;;;1854983;76;26342;-46
2022/07/03 09:32:50;;;;;;;0.88;0.88;;;;;;;;;;1848821;77;26723;-51
2022/07/03 09:35:24;;;;;;;0.80;0.80;;;;;;;;;;1856329;77;26786;-47
2022/07/03 09:38:02;;;;;;;0.93;0.93;;;;;;;;;;1857225;76;26238;-47
2022/07/03 09:40:50;;;;;;;0.80;0.80;;;;;;;;;;1852683;77;26366;-49
2022/07/03 09:43:25;;;;;;;0.90;0.90;;;;;;;;;;1850195;76;26774;-42
2022/07/03 09:45:54;;;;;;;1.10;1.00;;;;;;;;;;1852455;77;26265;-44
2022/07/03 09:48:22;;;;;;;1.05;1.00;;;;;;;;;;1839179;76;26261;-50
2022/07/03 09:50:49;;;;;;;1.10;0.80;;;;;;;;;;1842177;77;27215;-49
2022/07/03 09:53:16;;;;;;;0.80;0.80;;;;;;;;;;1839095;76;26790;-57
2022/07/03 09:55:45;;;;;;;0.85;0.85;;;;;;;;;;1840156;76;26862;-45
2022/07/03 09:58:12;;;;;;;0.88;0.80;;;;;;;;;;1843340;76;26263;-42
2022/07/03 10:00:40;;;;;;;0.95;0.88;;;;;;;;;;1846595;77;26273;-44
2022/07/03 10:03:09;;;;;;;1.37;0.93;;;;;;;;;;1846991;77;26332;-49
2022/07/03 10:05:37;;;;;;;0.72;0.72;;;;;;;;;;1846765;77;26316;-42
2022/07/03 10:08:06;;;;;;;1.00;0.90;;;;;;;;;;1846153;76;26312;-46
2022/07/03 10:10:37;;;;;;;1.10;0.90;;;;;;;;;;1847322;76;26732;-43
2022/07/03 10:13:05;;;;;;;0.85;0.85;;;;;;;;;;1845911;76;26581;-48
2022/07/03 11:31:16;;;;;;;0.82;0.82;;;;;;;;;;1897735;72;50039;-85
2022/07/03 11:33:47;;;;;;;0.85;0.80;;;;;;;;;;1903802;74;26237;-88
2022/07/03 11:36:22;;;;;;;4.95;0.60;;;;;;;;;;1899863;75;26210;-87
2022/07/03 11:38:51;;;;;;;0.60;0.60;;;;;;;;;;1902096;74;26249;-89
2022/07/03 11:41:18;;;;;;;0.60;0.60;;;;;;;;;;1902543;74;26239;-86
2022/07/03 11:43:52;;;;;;;1.52;0.60;;;;;;;;;;1906117;75;26230;-88
2022/07/03 11:46:20;;;;;;;0.60;0.60;;;;;;;;;;1887870;75;26241;-88
2022/07/03 11:48:48;;;;;;;0.65;0.65;;;;;;;;;;1900737;74;26234;-88
2022/07/03 11:51:15;;;;;;;0.80;0.80;;;;;;;;;;1895588;74;26186;-86
2022/07/03 11:53:43;;;;;;;0.88;0.70;;;;;;;;;;1906382;74;26265;-87
2022/07/03 11:56:10;;;;;;;0.70;0.70;;;;;;;;;;1906974;75;26170;-88
2022/07/03 11:58:48;;;;;;;0.70;0.70;;;;;;;;;;1905274;74;26830;-87
2022/07/03 12:01:26;;;;;;;0.80;0.80;;;;;;;;;;1880233;75;26228;-86
2022/07/03 12:03:54;;;;;;;0.70;0.70;;;;;;;;;;1899585;74;26236;-87
2022/07/03 12:06:21;;;;;;;0.70;0.70;;;;;;;;;;1888268;75;26188;-87
2022/07/03 12:08:49;;;;;;;0.60;0.60;;;;;;;;;;1895821;74;26237;-88
2022/07/03 12:11:17;;;;;;;0.70;0.70;;;;;;;;;;1905276;75;26304;-87
2022/07/03 12:13:44;;;;;;;0.70;0.70;;;;;;;;;;1901954;75;26804;-88
2022/07/03 12:16:15;;;;;;;0.72;0.72;;;;;;;;;;1906461;75;26161;-87
2022/07/03 12:18:53;;;;;;;1.90;0.72;;;;;;;;;;1920841;74;26654;-87
2022/07/03 12:21:21;;;;;;;1.75;0.70;;;;;;;;;;1897821;75;26507;-87
2022/07/03 12:23:55;;;;;;;0.60;0.60;;;;;;;;;;1906650;75;26629;-87
2022/07/03 12:26:36;;;;;;;0.62;0.62;;;;;;;;;;1904194;75;26242;-87
2022/07/03 12:29:04;;;;;;;1.12;0.98;;;;;;;;;;1916594;72;27490;-88
2022/07/03 12:31:32;;;;;;;0.95;0.82;;;;;;;;;;1895829;74;26251;-87
2022/07/03 12:33:59;;;;;;;0.70;0.70;;;;;;;;;;1886293;75;26304;-87
2022/07/03 12:36:27;;;;;;;0.70;0.70;;;;;;;;;;1822961;77;26228;-87
2022/07/03 12:38:55;;;;;;;0.70;0.70;;;;;;;;;;1882303;75;26265;-87
2022/07/03 12:41:23;;;;;;;0.70;0.70;;;;;;;;;;1848584;76;26706;-87
2022/07/03 12:43:50;;;;;;;0.80;0.80;;;;;;;;;;1872398;75;26410;-87
2022/07/03 12:46:22;;;;;;;1.65;0.93;;;;;;;;;;1874260;76;26955;-88
2022/07/03 12:48:54;;;;;;;0.70;0.70;;;;;;;;;;1860304;76;26268;-87
2022/07/03 12:51:42;;;;;;;0.70;0.70;;;;;;;;;;1897549;75;26234;-86
2022/07/03 12:54:08;;;;;;;1.72;0.93;;;;;;;;;;1865607;75;26310;-87
2022/07/03 12:56:36;;;;;;;0.70;0.70;;;;;;;;;;1875065;75;26298;-86
2022/07/03 12:59:18;;;;;;;0.60;0.60;;;;;;;;;;1877390;75;26275;-87
2022/07/03 13:02:02;;;;;;;0.70;0.70;;;;;;;;;;1878504;75;26750;-90
2022/07/03 13:04:37;;;;;;;0.90;0.90;;;;;;;;;;1874711;75;26253;-87
2022/07/03 13:07:06;;;;;;;2.05;0.80;;;;;;;;;;1871111;76;26279;-88
2022/07/03 13:09:34;;;;;;;0.95;0.95;;;;;;;;;;1861644;76;26275;-87
2022/07/03 13:12:01;;;;;;;1.05;0.80;;;;;;;;;;1851230;76;26324;-88
2022/07/03 13:14:28;;;;;;;0.90;0.90;;;;;;;;;;1852558;76;26651;-87
2022/07/03 13:16:56;;;;;;;1.40;0.70;;;;;;;;;;1865215;75;26288;-88
2022/07/03 13:19:24;;;;;;;0.60;0.60;;;;;;;;;;1846840;75;26816;-87
2022/07/03 13:21:53;;;;;;;0.70;0.70;;;;;;;;;;1868446;75;26313;-87
2022/07/03 13:24:21;;;;;;;0.70;0.70;;;;;;;;;;1857603;75;26360;-87
2022/07/03 13:26:50;;;;;;;0.80;0.80;;;;;;;;;;1855327;77;26239;-87
2022/07/03 13:29:17;;;;;;;0.70;0.70;;;;;;;;;;1856754;74;26754;-87
2022/07/03 13:31:44;;;;;;;0.80;0.80;;;;;;;;;;1882579;75;26265;-87
2022/07/03 13:34:12;;;;;;;1.15;0.80;;;;;;;;;;1885504;75;26209;-89
2022/07/03 13:36:39;;;;;;;0.72;0.70;;;;;;;;;;1887988;74;26253;-90
2022/07/03 13:39:08;;;;;;;0.85;0.80;;;;;;;;;;1884224;75;26268;-87
2022/07/03 13:41:36;;;;;;;0.80;0.80;;;;;;;;;;1886481;75;26323;-88
2022/07/03 13:44:03;;;;;;;0.90;0.90;;;;;;;;;;1885920;74;26229;-87
2022/07/03 13:46:31;;;;;;;0.80;0.80;;;;;;;;;;1888041;74;26276;-86
2022/07/03 13:48:58;;;;;;;0.65;0.65;;;;;;;;;;1886744;75;26504;-88
2022/07/03 13:51:25;;;;;;;0.70;0.70;;;;;;;;;;1911075;73;26223;-87
2022/07/03 13:53:53;;;;;;;0.75;0.75;;;;;;;;;;1872147;76;26186;-87
2022/07/03 13:56:20;;;;;;;0.70;0.70;;;;;;;;;;1909612;74;26238;-88
2022/07/03 13:58:47;;;;;;;1.20;1.00;;;;;;;;;;1914171;73;26238;-88
2022/07/03 14:01:15;;;;;;;1.45;0.95;;;;;;;;;;1906269;74;26825;-88
2022/07/03 14:03:42;;;;;;;0.80;0.80;;;;;;;;;;1907990;75;26742;-88
2022/07/03 14:06:09;;;;;;;2.15;0.90;;;;;;;;;;1913883;74;26211;-87
2022/07/03 14:08:36;;;;;;;1.85;0.93;;;;;;;;;;1913815;74;26737;-87
2022/07/03 14:11:04;;;;;;;0.98;0.85;;;;;;;;;;1912216;74;26261;-86
2022/07/03 14:13:31;;;;;;;0.80;0.80;;;;;;;;;;1911731;74;26705;-88
2022/07/03 14:16:00;;;;;;;2.12;0.80;;;;;;;;;;1911950;73;26284;-87
2022/07/03 14:18:27;;;;;;;3.00;0.80;;;;;;;;;;1909665;73;26234;-87
2022/07/03 14:20:54;;;;;;;1.27;0.65;;;;;;;;;;1875129;75;26253;-86
2022/07/03 14:23:22;;;;;;;2.08;0.70;;;;;;;;;;1910425;73;26723;-86
2022/07/03 14:25:49;;;;;;;2.98;0.80;;;;;;;;;;1909180;74;26226;-85
2022/07/03 14:33:47;;;;;;;0.85;0.65;;;;;;;;;;1916790;73;26730;-88
2022/07/03 14:36:15;;;;;;;2.65;0.70;;;;;;;;;;1909931;74;26226;-87
2022/07/03 14:38:42;;;;;;;2.45;0.80;;;;;;;;;;1909236;74;26223;-90
2022/07/03 14:41:09;;;;;;;1.25;0.80;;;;;;;;;;1903696;73;26226;-89
2022/07/03 14:43:37;;;;;;;1.55;0.70;;;;;;;;;;1908811;74;26856;-88
2022/07/03 14:46:04;;;;;;;2.60;0.70;;;;;;;;;;1908151;74;26238;-88
2022/07/03 14:48:31;;;;;;;2.37;0.78;;;;;;;;;;1878873;75;26260;-88
2022/07/03 14:50:58;;;;;;;1.57;0.70;;;;;;;;;;1919995;73;26324;-89
2022/07/03 14:53:26;;;;;;;1.80;0.70;;;;;;;;;;1911475;74;26726;-87
2022/07/03 14:55:55;;;;;;;0.68;0.68;;;;;;;;;;1912781;74;26175;-88
2022/07/03 14:58:24;;;;;;;0.72;0.72;;;;;;;;;;1911872;73;26241;-90
2022/07/03 15:00:54;;;;;;;0.93;0.85;;;;;;;;;;1871646;74;26253;-88
2022/07/03 15:03:25;;;;;;;0.98;0.82;;;;;;;;;;1921641;74;26371;-88
2022/07/03 15:05:54;;;;;;;1.98;0.80;;;;;;;;;;1911597;74;27649;-87
2022/07/03 15:08:31;;;;;;;1.47;0.80;;;;;;;;;;1910105;74;26755;-90
2022/07/03 15:11:03;;;;;;;1.98;0.90;;;;;;;;;;1903931;73;26282;-88
2022/07/03 15:13:31;;;;;;;2.62;0.90;;;;;;;;;;1903208;75;25768;-89
2022/07/03 15:15:58;;;;;;;2.10;0.80;;;;;;;;;;1878656;75;26279;-88
2022/07/03 15:18:27;;;;;;;4.65;1.10;;;;;;;;;;1860619;75;26311;-89
2022/07/03 15:20:54;;;;;;;0.82;0.70;;;;;;;;;;1885993;75;26347;-88
2022/07/03 15:23:22;;;;;;;1.07;0.82;;;;;;;;;;1891162;74;26316;-89
2022/07/03 15:25:49;;;;;;;3.35;0.80;;;;;;;;;;1887698;76;26237;-88
2022/07/03 15:28:17;;;;;;;1.30;0.80;;;;;;;;;;1885192;75;26348;-89
2022/07/03 15:30:49;;;;;;;1.80;0.70;;;;;;;;;;1888981;74;26407;-89
2022/07/03 15:33:16;;;;;;;2.05;0.70;;;;;;;;;;1880688;74;26311;-88
2022/07/03 15:35:48;;;;;;;2.08;0.70;;;;;;;;;;1860950;74;51990;-45
2022/07/03 15:38:18;;;;;;;1.95;0.60;;;;;;;;;;1860596;76;26348;-45
2022/07/03 15:40:47;;;;;;;1.10;0.60;;;;;;;;;;1892593;74;26257;-44
2022/07/03 15:43:35;;;;;;;3.02;0.90;;;;;;;;;;1848987;75;26402;-45
2022/07/03 15:46:13;;;;;;;0.78;0.78;;;;;;;;;;1884255;74;26175;-45
2022/07/03 15:49:00;;;;;;;1.12;0.70;;;;;;;;;;1852595;74;50431;-90
2022/07/03 15:51:45;;;;;;;0.60;0.60;;;;;;;;;;1876541;73;51467;-45
2022/07/03 15:54:14;;;;;;;1.15;0.80;;;;;;;;;;1900527;74;26243;-46
2022/07/03 15:56:42;;;;;;;1.32;0.82;;;;;;;;;;1902215;74;26246;-46
2022/07/03 15:59:11;;;;;;;0.82;0.70;;;;;;;;;;1904976;74;26250;-46
2022/07/03 16:04:30;;;;;;;1.90;0.80;;;;;;;;;;1895295;74;26420;-46
2022/07/03 16:06:57;;;;;;;0.85;0.80;;;;;;;;;;1919504;74;26351;-46
2022/07/03 16:09:25;;;;;;;1.45;0.70;;;;;;;;;;1910909;74;26838;-46
2022/07/03 16:11:52;;;;;;;0.82;0.75;;;;;;;;;;1900170;74;26262;-46
2022/07/03 16:14:20;;;;;;;0.70;0.70;;;;;;;;;;1900165;74;26689;-45
2022/07/03 16:16:48;;;;;;;0.80;0.80;;;;;;;;;;1895944;74;26565;-46
2022/07/03 16:19:15;;;;;;;0.70;0.70;;;;;;;;;;1909632;73;26266;-48
2022/07/03 16:21:43;;;;;;;1.80;0.90;;;;;;;;;;1903452;74;26247;-47